createdAt,value
2023-04-27T00:00:31.152Z,100977.72
2023-04-27T00:03:33.219Z,100971.81
2023-04-27T00:06:35.009Z,100970.03
2023-04-27T00:09:36.860Z,100978.75
2023-04-27T00:12:39.380Z,100972.81
2023-04-27T00:15:41.222Z,100972.91
2023-04-27T00:18:43.219Z,100968.59
2023-04-27T00:21:44.963Z,100974.50
2023-04-27T00:24:46.815Z,100967.66
2023-04-27T00:27:49.063Z,100968.03
2023-04-27T00:30:53.969Z,100972.63
2023-04-27T00:33:55.942Z,100969.19
2023-04-27T00:36:57.899Z,100971.00
2023-04-27T00:39:59.414Z,100976.13
2023-04-27T00:43:01.169Z,100973.00
2023-04-27T00:46:03.543Z,100981.69
2023-04-27T00:49:05.460Z,100970.69
2023-04-27T00:52:07.719Z,100978.84
2023-04-27T00:55:09.662Z,100973.94
2023-04-27T00:58:11.836Z,100975.13
2023-04-27T01:01:13.437Z,100973.53
2023-04-27T01:04:16.993Z,100978.34
2023-04-27T01:07:19.046Z,100977.31
2023-04-27T01:10:20.825Z,100977.09
2023-04-27T01:13:22.685Z,100978.19
2023-04-27T01:16:24.412Z,100988.69
2023-04-27T01:19:26.112Z,100989.03
2023-04-27T01:22:27.828Z,100985.41
2023-04-27T01:25:29.728Z,100991.34
2023-04-27T01:28:31.709Z,100997.94
2023-04-27T01:31:35.462Z,100998.63
2023-04-27T01:34:37.103Z,101001.75
2023-04-27T01:37:39.579Z,101008.06
2023-04-27T01:40:41.300Z,101011.72
2023-04-27T01:43:43.832Z,101017.94
2023-04-27T01:46:45.588Z,101021.13
2023-04-27T01:49:47.649Z,101022.09
2023-04-27T01:52:49.279Z,101027.56
2023-04-27T01:55:51.255Z,101030.13
2023-04-27T01:58:53.675Z,101035.56
2023-04-27T02:01:56.433Z,101046.81
2023-04-27T02:04:58.165Z,101051.53
2023-04-27T02:08:01.178Z,101056.16
2023-04-27T02:11:03.043Z,101055.56
2023-04-27T02:14:04.742Z,101060.03
2023-04-27T02:17:06.853Z,101062.06
2023-04-27T02:20:10.124Z,101067.56
2023-04-27T02:23:11.871Z,101062.53
2023-04-27T02:26:18.113Z,101073.28
2023-04-27T02:29:20.005Z,101067.63
2023-04-27T02:32:22.926Z,101069.41
2023-04-27T02:35:24.566Z,101075.91
2023-04-27T02:38:26.253Z,101070.19
2023-04-27T02:41:31.937Z,101068.53
2023-04-27T02:44:33.581Z,101064.59
2023-04-27T02:47:35.423Z,101060.50
2023-04-27T02:50:46.469Z,101054.16
2023-04-27T02:53:48.290Z,101063.72
2023-04-27T02:56:50.592Z,101053.00
2023-04-27T02:59:52.289Z,101059.88
2023-04-27T03:02:54.038Z,101061.53
2023-04-27T03:05:56.704Z,101056.38
2023-04-27T03:08:58.517Z,101057.16
2023-04-27T03:12:02.780Z,101052.06
2023-04-27T03:15:04.833Z,101056.50
2023-04-27T03:18:06.615Z,101054.59
2023-04-27T03:21:10.664Z,101056.13
2023-04-27T03:24:12.495Z,101056.13
2023-04-27T03:27:14.283Z,101053.41
2023-04-27T03:30:17.564Z,101057.03
2023-04-27T03:33:19.542Z,101063.16
2023-04-27T03:36:21.193Z,101063.16
2023-04-27T03:39:23.128Z,101073.25
2023-04-27T03:42:24.957Z,101075.94
2023-04-27T03:45:26.855Z,101073.72
2023-04-27T03:48:28.910Z,101068.72
2023-04-27T03:51:33.176Z,101073.97
2023-04-27T03:54:35.176Z,101069.81
2023-04-27T03:57:36.811Z,101077.88
2023-04-27T04:00:38.727Z,101076.06
2023-04-27T04:03:40.766Z,101066.00
2023-04-27T04:06:43.578Z,101073.75
2023-04-27T04:09:46.610Z,101078.16
2023-04-27T04:12:48.434Z,101081.53
2023-04-27T04:16:04.614Z,101084.25
2023-04-27T04:19:07.005Z,101082.47
2023-04-27T04:22:09.919Z,101087.88
2023-04-27T04:25:11.977Z,101086.75
2023-04-27T04:28:14.211Z,101090.97
2023-04-27T04:31:18.368Z,101095.91
2023-04-27T04:34:20.148Z,101093.44
2023-04-27T04:37:23.293Z,101086.72
2023-04-27T04:40:26.276Z,101088.50
2023-04-27T04:43:28.571Z,101087.59
2023-04-27T04:46:31.025Z,101096.72
2023-04-27T04:49:32.794Z,101091.59
2023-04-27T04:52:34.447Z,101100.16
2023-04-27T04:55:36.243Z,101096.56
2023-04-27T04:58:38.386Z,101100.09
2023-04-27T05:01:40.319Z,101100.91
2023-04-27T05:04:42.294Z,101099.88
2023-04-27T05:07:44.438Z,101107.63
2023-04-27T05:10:53.942Z,101116.03
2023-04-27T05:13:56.479Z,101114.28
2023-04-27T05:16:58.354Z,101115.81
2023-04-27T05:19:59.993Z,101113.16
2023-04-27T05:23:02.229Z,101110.50
2023-04-27T05:26:11.690Z,101112.81
2023-04-27T05:29:13.686Z,101116.22
2023-04-27T05:32:15.839Z,101119.50
2023-04-27T05:35:20.147Z,101125.09
2023-04-27T05:38:21.883Z,101124.16
2023-04-27T05:41:27.587Z,101123.25
2023-04-27T05:44:31.448Z,101130.75
2023-04-27T05:47:33.311Z,101128.50
2023-04-27T05:50:35.296Z,101131.63
2023-04-27T05:53:37.081Z,101133.97
2023-04-27T05:56:39.886Z,101143.91
2023-04-27T05:59:42.440Z,101150.66
2023-04-27T06:02:44.463Z,101151.50
2023-04-27T06:05:46.560Z,101155.69
2023-04-27T06:08:48.408Z,101151.34
2023-04-27T06:11:50.231Z,101155.38
2023-04-27T06:14:52.331Z,101152.13
2023-04-27T06:17:54.029Z,101163.66
2023-04-27T06:21:05.199Z,101159.66
2023-04-27T06:24:07.461Z,101163.63
2023-04-27T06:27:09.261Z,101165.75
2023-04-27T06:30:11.847Z,101176.84
2023-04-27T06:33:16.580Z,101167.34
2023-04-27T06:36:18.564Z,101169.88
2023-04-27T06:39:20.474Z,101168.13
2023-04-27T06:42:22.426Z,101181.44
2023-04-27T06:45:24.484Z,101182.63
2023-04-27T06:48:28.843Z,101184.81
2023-04-27T06:51:30.583Z,101183.00
2023-04-27T06:54:32.388Z,101188.13
2023-04-27T06:57:35.366Z,101188.66
2023-04-27T07:00:37.163Z,101177.44
2023-04-27T07:03:39.414Z,101173.81
2023-04-27T07:06:41.206Z,101176.06
2023-04-27T07:09:43.690Z,101178.59
2023-04-27T07:12:45.458Z,101182.56
2023-04-27T07:15:47.127Z,101181.78
2023-04-27T07:18:48.870Z,101185.00
2023-04-27T07:21:53.196Z,101182.97
2023-04-27T07:24:57.227Z,101175.84
2023-04-27T07:27:59.971Z,101178.56
2023-04-27T07:31:04.494Z,101184.72
2023-04-27T07:34:06.394Z,101183.03
2023-04-27T07:37:08.226Z,101188.31
2023-04-27T07:40:11.597Z,101185.41
2023-04-27T07:43:13.692Z,101188.00
2023-04-27T07:46:16.338Z,101187.41
2023-04-27T07:49:21.271Z,101197.03
2023-04-27T07:52:28.406Z,101184.38
2023-04-27T07:55:30.179Z,101190.00
2023-04-27T07:58:31.969Z,101179.47
2023-04-27T08:01:33.837Z,101180.69
2023-04-27T08:04:36.262Z,101172.69
2023-04-27T08:07:44.155Z,101170.53
2023-04-27T08:10:49.822Z,101172.75
2023-04-27T08:13:52.123Z,101175.81
2023-04-27T08:16:53.989Z,101174.50
2023-04-27T08:19:58.750Z,101171.06
2023-04-27T08:23:00.335Z,101167.53
2023-04-27T08:26:04.475Z,101168.53
2023-04-27T08:29:26.228Z,101170.94
2023-04-27T08:32:28.937Z,101167.34
2023-04-27T08:35:31.006Z,101159.59
2023-04-27T08:38:35.960Z,101169.25
2023-04-27T08:41:43.961Z,101163.94
2023-04-27T08:44:46.076Z,101162.88
2023-04-27T08:47:47.724Z,101166.63
2023-04-27T08:50:51.946Z,101166.97
2023-04-27T08:53:56.478Z,101161.78
2023-04-27T08:56:58.834Z,101157.13
2023-04-27T09:00:01.264Z,101155.34
2023-04-27T09:03:07.310Z,101155.91
2023-04-27T09:06:09.339Z,101158.25
2023-04-27T09:09:22.332Z,101165.66
2023-04-27T09:12:26.256Z,101170.88
2023-04-27T09:15:31.322Z,101168.75
2023-04-27T09:18:39.061Z,101169.44
2023-04-27T09:21:49.611Z,101163.84
2023-04-27T09:24:54.838Z,101177.31
2023-04-27T09:28:02.669Z,101170.03
2023-04-27T09:31:09.617Z,101172.41
2023-04-27T09:34:16.184Z,101160.94
2023-04-27T09:37:19.214Z,101163.19
2023-04-27T09:40:28.419Z,101157.19
2023-04-27T09:43:32.172Z,101158.66
2023-04-27T09:46:34.701Z,101153.22
2023-04-27T09:49:36.371Z,101152.81
2023-04-27T09:52:38.704Z,101155.47
2023-04-27T09:55:48.921Z,101149.50
2023-04-27T09:59:26.977Z,101148.59
2023-04-27T10:02:50.081Z,101159.78
2023-04-27T10:06:27.612Z,101159.38
2023-04-27T10:09:37.074Z,101155.41
2023-04-27T10:12:39.637Z,101159.19
2023-04-27T10:15:41.482Z,101154.78
2023-04-27T10:18:53.184Z,101157.63
2023-04-27T10:22:04.131Z,101160.16
2023-04-27T10:25:24.100Z,101154.44
2023-04-27T10:28:26.247Z,101154.13
2023-04-27T10:31:31.671Z,101155.56
2023-04-27T10:34:38.847Z,101148.47
2023-04-27T10:37:42.729Z,101147.06
2023-04-27T10:40:46.552Z,101147.63
2023-04-27T10:43:48.368Z,101151.50
2023-04-27T10:46:52.258Z,101152.81
2023-04-27T10:49:59.028Z,101143.16
2023-04-27T10:53:08.204Z,101139.28
2023-04-27T10:56:10.515Z,101138.44
2023-04-27T10:59:13.715Z,101138.63
2023-04-27T11:02:16.588Z,101138.63
2023-04-27T11:05:20.135Z,101143.94
2023-04-27T11:08:21.987Z,101144.91
2023-04-27T11:11:24.306Z,101135.91
2023-04-27T11:14:26.636Z,101124.50
2023-04-27T11:17:34.662Z,101132.41
2023-04-27T11:20:36.715Z,101134.03
2023-04-27T11:23:39.464Z,101129.56
2023-04-27T11:26:41.350Z,101133.31
2023-04-27T11:29:43.335Z,101136.78
2023-04-27T11:32:45.616Z,101140.38
2023-04-27T11:35:47.866Z,101133.22
2023-04-27T11:38:50.150Z,101140.75
2023-04-27T11:41:52.110Z,101143.25
2023-04-27T11:45:00.099Z,101129.31
2023-04-27T11:48:03.933Z,101117.13
2023-04-27T11:51:07.116Z,101127.03
2023-04-27T11:54:10.345Z,101120.50
2023-04-27T11:57:12.099Z,101115.34
2023-04-27T12:00:15.380Z,101110.59
2023-04-27T12:03:17.558Z,101105.81
2023-04-27T12:06:32.773Z,101111.03
2023-04-27T12:09:35.448Z,101102.50
2023-04-27T12:12:37.285Z,101110.22
2023-04-27T12:15:39.918Z,101113.06
2023-04-27T12:18:41.649Z,101109.31
2023-04-27T12:21:43.747Z,101100.97
2023-04-27T12:24:45.637Z,101103.75
2023-04-27T12:27:48.992Z,101098.75
2023-04-27T12:30:51.091Z,101095.97
2023-04-27T12:33:53.988Z,101106.44
2023-04-27T12:36:55.985Z,101103.78
2023-04-27T12:39:58.016Z,101097.88
2023-04-27T12:43:01.442Z,101086.19
2023-04-27T12:46:04.291Z,101093.66
2023-04-27T12:49:09.567Z,101089.81
2023-04-27T12:52:11.367Z,101092.81
2023-04-27T12:55:24.887Z,101079.66
2023-04-27T12:58:33.216Z,101077.03
2023-04-27T13:01:35.448Z,101077.31
2023-04-27T13:04:37.467Z,101083.78
2023-04-27T13:07:39.374Z,101077.16
2023-04-27T13:10:42.290Z,101081.41
2023-04-27T13:13:48.017Z,101084.97
2023-04-27T13:16:50.093Z,101085.13
2023-04-27T13:19:52.882Z,101088.84
2023-04-27T13:22:54.635Z,101085.53
2023-04-27T13:25:56.357Z,101085.53
2023-04-27T13:28:59.755Z,101087.34
2023-04-27T13:32:02.133Z,101080.06
2023-04-27T13:35:05.362Z,101088.19
2023-04-27T13:38:07.392Z,101083.47
2023-04-27T13:41:09.338Z,101085.56
2023-04-27T13:44:11.305Z,101081.88
2023-04-27T13:47:13.315Z,101073.22
2023-04-27T13:50:15.035Z,101077.84
2023-04-27T13:53:17.537Z,101078.47
2023-04-27T13:56:19.442Z,101071.25
2023-04-27T13:59:21.787Z,101074.94
2023-04-27T14:02:25.380Z,101080.34
2023-04-27T14:05:27.567Z,101068.31
2023-04-27T14:08:29.310Z,101058.66
2023-04-27T14:11:31.935Z,101058.88
2023-04-27T14:14:37.502Z,101057.78
2023-04-27T14:17:39.616Z,101048.69
2023-04-27T14:20:42.472Z,101051.81
2023-04-27T14:23:44.319Z,101041.88
2023-04-27T14:26:47.768Z,101034.50
2023-04-27T14:29:49.700Z,101042.47
2023-04-27T14:32:51.853Z,101039.44
2023-04-27T14:35:54.649Z,101042.13
2023-04-27T14:38:56.572Z,101043.34
2023-04-27T14:41:58.483Z,101035.16
2023-04-27T14:45:00.313Z,101033.63
2023-04-27T14:48:02.537Z,101034.69
2023-04-27T14:51:05.840Z,101029.34
2023-04-27T14:54:09.118Z,101024.94
2023-04-27T14:57:10.951Z,101021.38
2023-04-27T15:00:15.438Z,101027.59
2023-04-27T15:03:17.575Z,101012.81
2023-04-27T15:06:19.688Z,101026.41
2023-04-27T15:09:21.533Z,101015.38
2023-04-27T15:12:23.690Z,101016.81
2023-04-27T15:15:25.658Z,101010.78
2023-04-27T15:18:27.295Z,101013.53
2023-04-27T15:21:30.647Z,101013.47
2023-04-27T15:24:32.392Z,101015.44
2023-04-27T15:27:34.205Z,101006.50
2023-04-27T15:30:36.200Z,101012.81
2023-04-27T15:33:37.882Z,101011.31
2023-04-27T15:36:39.871Z,101006.81
2023-04-27T15:39:42.182Z,101001.03
2023-04-27T15:42:44.167Z,101002.69
2023-04-27T15:45:46.137Z,101006.38
2023-04-27T15:48:47.957Z,101002.41
2023-04-27T15:51:50.193Z,101000.19
2023-04-27T15:54:51.880Z,100997.97
2023-04-27T15:57:54.030Z,100990.41
2023-04-27T16:00:55.774Z,100988.78
2023-04-27T16:03:57.842Z,100985.53
2023-04-27T16:06:59.732Z,100986.63
2023-04-27T16:10:01.898Z,100985.13
2023-04-27T16:13:03.914Z,100983.75
2023-04-27T16:16:08.465Z,100972.91
2023-04-27T16:19:10.465Z,100974.25
2023-04-27T16:22:12.288Z,100973.03
2023-04-27T16:25:14.095Z,100965.63
2023-04-27T16:28:18.168Z,100971.94
2023-04-27T16:31:20.243Z,100967.97
2023-04-27T16:34:21.913Z,100961.50
2023-04-27T16:37:23.768Z,100956.31
2023-04-27T16:40:25.737Z,100953.84
2023-04-27T16:43:28.082Z,100956.34
2023-04-27T16:46:29.948Z,100966.88
2023-04-27T16:49:31.865Z,100972.63
2023-04-27T16:52:33.649Z,100965.72
2023-04-27T16:55:35.804Z,100972.41
2023-04-27T16:58:37.514Z,100966.34
2023-04-27T17:01:39.488Z,100978.03
2023-04-27T17:04:43.247Z,100977.00
2023-04-27T17:07:45.754Z,100977.28
2023-04-27T17:10:47.820Z,100973.72
2023-04-27T17:13:50.482Z,100965.91
2023-04-27T17:16:53.129Z,100963.19
2023-04-27T17:19:55.083Z,100957.00
2023-04-27T17:22:57.142Z,100949.72
2023-04-27T17:25:58.906Z,100949.66
2023-04-27T17:29:01.627Z,100945.66
2023-04-27T17:32:04.292Z,100939.91
2023-04-27T17:35:06.416Z,100946.00
2023-04-27T17:38:08.395Z,100940.00
2023-04-27T17:41:10.223Z,100939.19
2023-04-27T17:44:12.814Z,100945.31
2023-04-27T17:47:14.772Z,100943.75
2023-04-27T17:50:16.563Z,100943.94
2023-04-27T17:53:18.367Z,100943.31
2023-04-27T17:56:20.161Z,100944.44
2023-04-27T17:59:22.207Z,100935.84
2023-04-27T18:02:24.022Z,100930.81
2023-04-27T18:05:26.884Z,100931.59
2023-04-27T18:08:28.404Z,100916.97
2023-04-27T18:11:29.974Z,100921.31
2023-04-27T18:14:31.647Z,100917.94
2023-04-27T18:17:33.655Z,100923.84
2023-04-27T18:20:36.540Z,100912.72
2023-04-27T18:23:39.432Z,100915.56
2023-04-27T18:26:41.130Z,100924.38
2023-04-27T18:29:43.402Z,100921.25
2023-04-27T18:32:45.374Z,100918.78
2023-04-27T18:35:47.386Z,100912.78
2023-04-27T18:38:49.193Z,100916.06
2023-04-27T18:41:50.855Z,100930.41
2023-04-27T18:44:54.760Z,100920.88
2023-04-27T18:47:56.727Z,100923.25
2023-04-27T18:50:58.633Z,100925.47
2023-04-27T18:54:00.377Z,100931.84
2023-04-27T18:57:04.310Z,100924.59
2023-04-27T19:00:06.872Z,100925.78
2023-04-27T19:03:08.841Z,100921.94
2023-04-27T19:06:10.771Z,100920.03
2023-04-27T19:09:12.659Z,100924.75
2023-04-27T19:12:14.444Z,100919.13
2023-04-27T19:15:16.378Z,100918.13
2023-04-27T19:18:18.138Z,100916.16
2023-04-27T19:21:19.994Z,100924.31
2023-04-27T19:24:21.593Z,100917.06
2023-04-27T19:27:23.431Z,100925.19
2023-04-27T19:30:25.366Z,100914.41
2023-04-27T19:33:28.717Z,100906.94
2023-04-27T19:36:31.790Z,100903.75
2023-04-27T19:39:34.499Z,100909.16
2023-04-27T19:42:36.327Z,100905.84
2023-04-27T19:45:39.059Z,100911.81
2023-04-27T19:48:42.341Z,100911.25
2023-04-27T19:51:44.319Z,100911.38
2023-04-27T19:54:51.563Z,100919.28
2023-04-27T19:57:53.148Z,100927.16
2023-04-27T20:00:55.031Z,100924.03
2023-04-27T20:03:57.459Z,100923.28
2023-04-27T20:06:59.288Z,100923.47
2023-04-27T20:10:02.676Z,100924.75
2023-04-27T20:13:04.879Z,100926.69
2023-04-27T20:16:06.639Z,100919.03
2023-04-27T20:19:10.707Z,100924.63
2023-04-27T20:22:13.242Z,100921.50
2023-04-27T20:25:15.542Z,100920.75
2023-04-27T20:28:17.269Z,100920.31
2023-04-27T20:31:19.112Z,100920.44
2023-04-27T20:34:21.185Z,100931.03
2023-04-27T20:37:23.580Z,100921.88
2023-04-27T20:40:25.732Z,100921.31
2023-04-27T20:43:27.578Z,100919.00
2023-04-27T20:46:29.836Z,100916.69
2023-04-27T20:49:35.278Z,100913.53
2023-04-27T20:52:37.596Z,100905.25
2023-04-27T20:55:39.522Z,100904.63
2023-04-27T20:58:41.344Z,100910.75
2023-04-27T21:01:43.314Z,100900.72
2023-04-27T21:04:45.211Z,100896.50
2023-04-27T21:07:46.977Z,100889.78
2023-04-27T21:10:48.534Z,100888.78
2023-04-27T21:13:50.274Z,100885.38
2023-04-27T21:16:52.032Z,100885.38
2023-04-27T21:19:53.997Z,100886.94
2023-04-27T21:22:56.418Z,100894.66
2023-04-27T21:25:58.144Z,100889.44
2023-04-27T21:28:59.923Z,100886.03
2023-04-27T21:32:01.848Z,100888.63
2023-04-27T21:35:03.981Z,100879.34
2023-04-27T21:38:05.966Z,100881.22
2023-04-27T21:41:07.881Z,100873.78
2023-04-27T21:44:10.401Z,100877.50
2023-04-27T21:47:12.217Z,100867.66
2023-04-27T21:50:13.914Z,100868.06
2023-04-27T21:53:15.800Z,100870.06
2023-04-27T21:56:17.531Z,100869.66
2023-04-27T21:59:19.180Z,100861.41
2023-04-27T22:02:20.961Z,100865.22
2023-04-27T22:05:22.772Z,100866.38
2023-04-27T22:08:24.625Z,100856.34
2023-04-27T22:11:26.516Z,100854.78
2023-04-27T22:14:28.923Z,100852.56
2023-04-27T22:17:30.666Z,100852.78
2023-04-27T22:20:33.195Z,100843.59
2023-04-27T22:23:35.063Z,100833.47
2023-04-27T22:26:37.058Z,100838.84
2023-04-27T22:29:38.726Z,100833.78
2023-04-27T22:32:40.489Z,100826.25
2023-04-27T22:35:43.534Z,100825.44
2023-04-27T22:38:45.121Z,100819.53
2023-04-27T22:41:46.597Z,100810.19
2023-04-27T22:44:48.308Z,100806.88
2023-04-27T22:47:50.108Z,100804.16
2023-04-27T22:50:51.879Z,100798.94
2023-04-27T22:53:54.269Z,100802.75
2023-04-27T22:56:56.479Z,100798.19
2023-04-27T22:59:58.358Z,100798.78
2023-04-27T23:03:00.275Z,100795.06
2023-04-27T23:06:02.142Z,100788.66
2023-04-27T23:09:04.001Z,100794.41
2023-04-27T23:12:07.804Z,100791.66
2023-04-27T23:15:10.174Z,100791.56
2023-04-27T23:18:12.030Z,100793.13
2023-04-27T23:21:13.808Z,100792.97
2023-04-27T23:24:15.620Z,100788.75
2023-04-27T23:27:18.182Z,100784.41
2023-04-27T23:30:21.319Z,100780.03
2023-04-27T23:33:23.070Z,100785.28
2023-04-27T23:36:24.745Z,100779.97
2023-04-27T23:39:28.009Z,100774.72
2023-04-27T23:42:29.771Z,100772.03
2023-04-27T23:45:31.665Z,100765.91
2023-04-27T23:48:33.607Z,100759.84
2023-04-27T23:51:35.242Z,100752.88
2023-04-27T23:54:37.154Z,100746.09
2023-04-27T23:57:38.974Z,100738.28
